Time;durP1;ratioP1;P1;durP2;ratioP2;P2;SDS_P1;SDS_P2;PMS_P1;PMS_P2;Temp;Humidity;BMP_temperature;BMP_pressure;BME280_temperature;BME280_humidity;BME280_pressure;Samples;Min_cycle;Max_cycle;Signal;HPM_P1;HPM_P2
2024/01/06 00:01:19;;;;;;;3.97;3.10;;;;;;;19.54;49.17;99571.69;5050774;28;20080;-61
2024/01/06 00:03:47;;;;;;;4.03;3.20;;;;;;;19.53;49.03;99580.75;5050420;28;20049;-60
2024/01/06 00:06:14;;;;;;;3.72;2.78;;;;;;;19.54;48.90;99571.69;5050514;28;20495;-62
2024/01/06 00:08:45;;;;;;;3.85;2.65;;;;;;;19.55;49.13;99564.47;5046216;28;20049;-59
2024/01/06 00:11:12;;;;;;;4.05;3.00;;;;;;;19.55;49.07;99564.47;5051074;28;20051;-57
2024/01/06 00:13:40;;;;;;;4.00;2.60;;;;;;;19.55;48.94;99568.00;5050379;28;20060;-57
2024/01/06 00:16:07;;;;;;;4.93;2.63;;;;;;;19.56;48.90;99568.81;5050068;28;20053;-57
2024/01/06 00:18:35;;;;;;;4.15;2.63;;;;;;;19.56;48.91;99571.50;5043460;28;20482;-62
2024/01/06 00:21:03;;;;;;;3.70;2.63;;;;;;;19.56;48.71;99564.28;5024852;28;20041;-59
2024/01/06 00:23:30;;;;;;;3.20;2.50;;;;;;;19.56;48.85;99569.66;5045351;28;20049;-61
2024/01/06 00:25:58;;;;;;;3.55;2.33;;;;;;;19.56;48.76;99560.78;5050425;28;20485;-61
2024/01/06 00:28:25;;;;;;;3.28;2.30;;;;;;;19.57;48.94;99574.06;5020693;28;20655;-60
2024/01/06 00:30:53;;;;;;;2.95;2.30;;;;;;;19.57;49.06;99571.38;5051028;28;20506;-61
2024/01/06 00:33:21;;;;;;;3.30;2.58;;;;;;;19.57;48.93;99571.38;5051217;28;20060;-61
2024/01/06 00:35:48;;;;;;;2.92;2.20;;;;;;;19.57;49.02;99574.06;5051242;28;20047;-61
2024/01/06 00:38:16;;;;;;;3.38;2.05;;;;;;;19.57;48.75;99573.19;5047910;28;20041;-57
2024/01/06 00:40:43;;;;;;;3.78;2.30;;;;;;;19.56;48.85;99566.97;5050779;28;20422;-57
2024/01/06 00:43:11;;;;;;;4.85;2.53;;;;;;;19.56;48.74;99569.66;5045173;28;20041;-57
2024/01/06 00:45:38;;;;;;;3.15;2.15;;;;;;;19.56;48.44;99572.34;5050375;28;20045;-57
2024/01/06 00:48:06;;;;;;;3.30;2.15;;;;;;;19.56;48.39;99575.03;5047186;28;20048;-60
2024/01/06 00:50:34;;;;;;;4.20;2.63;;;;;;;19.56;48.44;99572.34;5050411;28;20491;-61
2024/01/06 00:53:01;;;;;;;4.30;2.33;;;;;;;19.55;48.34;99557.25;5038378;28;20052;-61
2024/01/06 00:55:28;;;;;;;2.35;1.80;;;;;;;19.56;48.25;99563.47;5050247;28;20053;-61
2024/01/06 00:57:56;;;;;;;2.90;2.10;;;;;;;19.55;48.11;99569.84;5046870;28;20506;-56
2024/01/06 01:00:23;;;;;;;2.83;1.80;;;;;;;19.55;47.88;99565.31;5050746;28;20060;-57
2024/01/06 01:02:51;;;;;;;3.67;2.17;;;;;;;19.54;47.82;99568.16;5050062;28;20057;-55
2024/01/06 01:05:19;;;;;;;3.17;2.22;;;;;;;19.54;48.07;99577.06;5050363;28;20064;-56
2024/01/06 01:07:48;;;;;;;3.55;1.95;;;;;;;19.54;47.62;99566.31;5046517;28;20097;-60
2024/01/06 01:10:16;;;;;;;3.47;2.25;;;;;;;19.54;47.68;99562.78;5049629;28;20053;-60
2024/01/06 01:12:43;;;;;;;3.05;1.80;;;;;;;19.54;47.63;99566.31;5049065;28;20056;-60
2024/01/06 01:15:11;;;;;;;2.88;1.92;;;;;;;19.52;47.52;99569.16;5048693;28;20051;-60
2024/01/06 01:17:38;;;;;;;2.78;1.60;;;;;;;19.52;47.45;99560.25;5046615;28;20045;-59
2024/01/06 01:20:06;;;;;;;3.45;1.98;;;;;;;19.52;47.64;99560.25;5050049;28;20041;-60
2024/01/06 01:22:33;;;;;;;3.25;1.75;;;;;;;19.51;47.31;99551.38;5049305;28;20124;-60
2024/01/06 01:25:05;;;;;;;2.85;1.80;;;;;;;19.50;47.36;99555.06;5049458;28;20049;-59
2024/01/06 01:27:33;;;;;;;2.72;1.83;;;;;;;19.51;47.24;99550.53;5046751;28;20046;-55
2024/01/06 01:30:01;;;;;;;2.60;1.55;;;;;;;19.49;47.32;99537.28;5017721;28;20053;-56
2024/01/06 01:32:28;;;;;;;2.50;1.75;;;;;;;19.50;47.38;99544.31;5026848;28;20054;-56
2024/01/06 01:34:56;;;;;;;3.70;1.80;;;;;;;19.48;47.27;99546.31;5022748;28;20056;-56
2024/01/06 01:37:23;;;;;;;2.85;1.73;;;;;;;19.49;47.45;99547.19;5025010;28;20403;-56
2024/01/06 01:39:51;;;;;;;3.17;1.73;;;;;;;19.48;47.38;99545.47;5020818;28;20054;-56
2024/01/06 01:42:18;;;;;;;2.55;1.75;;;;;;;19.48;47.52;99546.31;5020609;28;20417;-56
2024/01/06 01:44:46;;;;;;;3.20;1.65;;;;;;;19.47;47.56;99533.91;5023022;28;20484;-56
2024/01/06 01:47:18;;;;;;;2.60;1.77;;;;;;;19.47;47.52;99544.66;5024506;28;20045;-59
2024/01/06 01:49:46;;;;;;;2.63;1.67;;;;;;;19.46;47.49;99551.03;5020390;28;20045;-55
2024/01/06 01:52:15;;;;;;;2.78;1.80;;;;;;;19.46;47.52;99548.34;5020507;28;20287;-54
2024/01/06 01:54:44;;;;;;;2.30;1.30;;;;;;;19.47;47.53;99541.13;5024567;28;20053;-55
2024/01/06 01:57:13;;;;;;;2.00;1.17;;;;;;;19.46;47.70;99534.91;5014837;28;20041;-56
2024/01/06 01:59:42;;;;;;;2.47;1.50;;;;;;;19.46;47.50;99536.78;5020520;28;20519;-53
2024/01/06 02:02:09;;;;;;;2.33;1.20;;;;;;;19.44;47.65;99534.22;5019281;28;20054;-53
2024/01/06 02:04:37;;;;;;;2.90;1.83;;;;;;;19.44;47.62;99536.91;5024975;28;20401;-54
2024/01/06 02:07:04;;;;;;;3.17;1.48;;;;;;;19.44;47.74;99528.03;5020813;28;20420;-60
2024/01/06 02:09:32;;;;;;;2.28;1.40;;;;;;;19.44;47.74;99528.03;5020229;28;20096;-55
2024/01/06 02:11:59;;;;;;;2.20;1.30;;;;;;;19.43;47.46;99523.66;5019810;28;20514;-56
2024/01/06 02:14:27;;;;;;;2.63;1.25;;;;;;;19.42;47.66;99522.00;5025015;28;20496;-54
2024/01/06 02:16:55;;;;;;;3.03;1.67;;;;;;;19.43;47.52;99529.88;5021115;28;20710;-55
2024/01/06 02:19:22;;;;;;;2.90;1.67;;;;;;;19.42;47.68;99524.69;5019917;28;20411;-54
2024/01/06 02:21:53;;;;;;;2.22;1.13;;;;;;;19.42;47.70;99516.63;5024121;28;20046;-55
2024/01/06 02:24:21;;;;;;;2.53;1.52;;;;;;;19.42;47.74;99530.06;5025744;28;20048;-55
2024/01/06 02:26:49;;;;;;;3.85;1.48;;;;;;;19.41;47.96;99539.94;5032392;28;20046;-58
2024/01/06 02:29:16;;;;;;;2.42;1.38;;;;;;;19.42;47.67;99530.06;5018203;28;20050;-59
2024/01/06 02:31:44;;;;;;;2.08;1.15;;;;;;;19.40;47.80;99527.50;5015375;28;20050;-59
2024/01/06 02:34:12;;;;;;;2.65;1.50;;;;;;;19.39;47.77;99525.00;5025862;28;20045;-59
2024/01/06 02:36:39;;;;;;;2.20;1.20;;;;;;;19.40;47.64;99527.50;5019443;28;20042;-54
2024/01/06 02:39:07;;;;;;;2.40;1.30;;;;;;;19.39;47.71;99520.47;5020655;28;20054;-56
2024/01/06 02:41:34;;;;;;;2.53;1.50;;;;;;;19.39;47.64;99522.31;5019722;28;20046;-55
2024/01/06 02:44:03;;;;;;;2.67;1.70;;;;;;;19.38;47.73;99524.16;5025815;28;20049;-55
2024/01/06 02:46:31;;;;;;;2.67;1.55;;;;;;;19.37;47.89;99521.66;5020073;28;20049;-57
2024/01/06 02:48:58;;;;;;;2.25;1.30;;;;;;;19.37;47.61;99518.97;5019247;28;20045;-55
2024/01/06 02:51:26;;;;;;;2.35;1.38;;;;;;;19.37;47.74;99521.66;5021228;28;20111;-56
2024/01/06 02:53:53;;;;;;;1.63;0.90;;;;;;;19.36;47.59;99515.41;5027361;28;20407;-56
2024/01/06 02:56:21;;;;;;;1.98;1.30;;;;;;;19.36;47.77;99519.94;5019278;28;20068;-55
2024/01/06 02:58:49;;;;;;;2.05;1.08;;;;;;;19.36;47.68;99517.28;5019512;28;20404;-58
2024/01/06 03:01:17;;;;;;;2.30;1.27;;;;;;;19.36;47.59;99519.94;5019562;28;20054;-59
2024/01/06 03:03:45;;;;;;;2.50;1.60;;;;;;;19.36;48.02;99511.91;5026538;28;20049;-59
2024/01/06 03:06:13;;;;;;;2.28;1.30;;;;;;;19.35;47.88;99510.22;5019656;28;20485;-59
2024/01/06 03:08:40;;;;;;;2.42;1.15;;;;;;;19.35;48.01;99505.69;5020083;28;20049;-55
2024/01/06 03:11:08;;;;;;;2.05;1.27;;;;;;;19.34;47.98;99501.34;5019538;28;20199;-55
2024/01/06 03:13:35;;;;;;;2.20;1.27;;;;;;;19.35;47.96;99502.19;5020371;28;20041;-55
2024/01/06 03:16:06;;;;;;;2.00;1.13;;;;;;;19.36;47.87;99504.69;5020161;28;20130;-54
2024/01/06 03:18:33;;;;;;;2.10;1.15;;;;;;;19.34;47.85;99495.97;5019848;28;20050;-55
2024/01/06 03:21:01;;;;;;;2.92;1.60;;;;;;;19.34;47.74;99498.66;5019770;28;20050;-55
2024/01/06 03:23:28;;;;;;;2.00;1.20;;;;;;;19.33;47.77;99501.53;5025360;28;20053;-55
2024/01/06 03:25:56;;;;;;;1.67;0.98;;;;;;;19.33;47.75;99505.03;5019641;28;20042;-55
2024/01/06 03:28:23;;;;;;;1.77;1.05;;;;;;;19.33;47.94;99505.03;5019010;28;20405;-59
2024/01/06 03:30:51;;;;;;;1.70;0.98;;;;;;;19.33;47.61;99506.88;5018831;28;20066;-59
2024/01/06 03:33:18;;;;;;;2.08;1.00;;;;;;;19.33;47.60;99504.22;5022927;28;20059;-59
2024/01/06 03:35:46;;;;;;;1.63;0.93;;;;;;;19.33;47.92;99498.84;5020143;28;20386;-59
2024/01/06 03:38:13;;;;;;;2.30;1.20;;;;;;;19.31;47.83;99493.63;5020558;28;20052;-56
2024/01/06 03:40:41;;;;;;;2.78;1.17;;;;;;;19.31;47.87;99495.47;5023596;28;20046;-56
2024/01/06 03:43:08;;;;;;;1.95;0.82;;;;;;;19.31;47.75;99490.94;5030340;28;20053;-56
2024/01/06 03:45:36;;;;;;;1.90;1.00;;;;;;;19.30;47.79;99491.94;5023372;28;20057;-56
2024/01/06 03:48:03;;;;;;;2.10;0.95;;;;;;;19.30;47.83;99491.94;5024564;28;20053;-56
2024/01/06 03:50:31;;;;;;;1.60;0.90;;;;;;;19.29;47.98;99501.00;5023434;28;20065;-56
2024/01/06 03:52:58;;;;;;;2.40;1.17;;;;;;;19.30;48.03;99493.78;5029155;28;20502;-56
2024/01/06 03:55:26;;;;;;;2.10;1.10;;;;;;;19.30;47.86;99489.25;5022779;28;20050;-55
2024/01/06 03:57:53;;;;;;;1.85;1.05;;;;;;;19.29;48.02;99489.44;5030320;28;20048;-54
2024/01/06 04:00:21;;;;;;;2.05;0.90;;;;;;;19.29;48.02;99487.59;5026253;28;20046;-59
2024/01/06 04:02:48;;;;;;;2.13;0.88;;;;;;;19.28;47.85;99493.94;5037405;28;20045;-60
2024/01/06 04:05:16;;;;;;;1.80;1.00;;;;;;;19.27;47.79;99493.09;5023129;28;20045;-60
2024/01/06 04:07:43;;;;;;;1.88;0.93;;;;;;;19.27;48.10;99495.78;5022744;28;20045;-59
2024/01/06 04:10:11;;;;;;;2.05;0.98;;;;;;;19.27;48.12;99498.47;5023335;28;20057;-60
2024/01/06 04:12:38;;;;;;;2.15;0.93;;;;;;;19.27;48.09;99501.16;5029496;28;20055;-59
2024/01/06 04:15:06;;;;;;;1.88;1.00;;;;;;;19.27;48.40;99501.16;5022873;28;20053;-60
2024/01/06 04:17:34;;;;;;;1.77;0.80;;;;;;;19.27;48.30;99500.31;5022416;28;20507;-61
2024/01/06 04:20:01;;;;;;;1.50;0.77;;;;;;;19.27;48.40;99500.31;5022757;28;20042;-60
2024/01/06 04:22:29;;;;;;;2.58;1.23;;;;;;;19.25;48.33;99497.81;5028626;28;20486;-60
2024/01/06 04:24:56;;;;;;;2.10;1.00;;;;;;;19.25;48.47;99492.44;5022316;28;20046;-60
2024/01/06 04:27:24;;;;;;;2.03;0.90;;;;;;;19.25;48.30;99496.97;5022517;28;20049;-59
2024/01/06 04:29:53;;;;;;;1.08;0.60;;;;;;;19.25;48.05;99503.19;5022032;28;20054;-60
2024/01/06 04:32:21;;;;;;;2.15;0.98;;;;;;;19.25;48.11;99499.66;5025018;28;20160;-60
2024/01/06 04:34:49;;;;;;;2.05;0.75;;;;;;;19.24;48.33;99501.50;5024554;28;20056;-60
2024/01/06 04:37:16;;;;;;;1.15;0.70;;;;;;;19.24;48.36;99504.19;5030532;28;20496;-56
2024/01/06 04:39:44;;;;;;;0.88;0.50;;;;;;;19.24;48.26;99503.31;5023741;28;20041;-59
2024/01/06 04:42:11;;;;;;;1.60;0.80;;;;;;;19.24;48.37;99496.13;5028379;28;20394;-59
2024/01/06 04:44:39;;;;;;;1.17;0.60;;;;;;;19.23;48.33;99494.44;5022849;28;20481;-60
2024/01/06 04:47:06;;;;;;;2.20;0.82;;;;;;;19.22;48.27;99492.75;5022256;28;20069;-60
2024/01/06 04:49:34;;;;;;;2.25;1.00;;;;;;;19.22;48.35;99495.44;5023756;28;20099;-60
2024/01/06 04:52:01;;;;;;;1.45;0.70;;;;;;;19.22;48.29;99495.44;5028515;28;20399;-59
2024/01/06 04:54:29;;;;;;;1.33;0.68;;;;;;;19.22;48.25;99494.59;5030747;28;20050;-59
2024/01/06 04:56:56;;;;;;;1.40;0.65;;;;;;;19.21;48.18;99495.63;5022447;28;20053;-59
2024/01/06 04:59:24;;;;;;;1.70;0.80;;;;;;;19.21;48.35;99495.63;5023237;28;20396;-57
2024/01/06 05:01:52;;;;;;;2.45;0.82;;;;;;;19.20;48.25;99500.16;5027833;28;20407;-56
2024/01/06 05:04:20;;;;;;;1.67;0.70;;;;;;;19.19;48.23;99487.72;5020005;28;20102;-59
2024/01/06 05:06:49;;;;;;;1.52;0.70;;;;;;;19.19;48.15;99492.25;5021937;28;20050;-59
2024/01/06 05:09:17;;;;;;;2.58;0.70;;;;;;;19.19;48.11;99493.06;5024372;28;20046;-60
2024/01/06 05:11:44;;;;;;;0.93;0.45;;;;;;;19.19;48.23;99495.75;5027040;28;20048;-61
2024/01/06 05:14:12;;;;;;;1.50;0.63;;;;;;;19.19;48.29;99487.72;5019352;28;20052;-60
2024/01/06 05:16:40;;;;;;;1.45;0.63;;;;;;;19.20;48.31;99483.19;5022100;28;20061;-59
2024/01/06 05:19:07;;;;;;;1.45;0.70;;;;;;;19.19;48.37;99486.88;5023625;28;20050;-60
2024/01/06 05:21:35;;;;;;;1.35;0.60;;;;;;;19.20;48.59;99491.22;5027023;28;20064;-54
2024/01/06 05:24:03;;;;;;;1.70;0.60;;;;;;;19.19;48.21;99486.88;5026124;28;20046;-56
2024/01/06 05:26:30;;;;;;;1.58;0.73;;;;;;;19.19;48.33;99482.34;5028440;28;20046;-53
2024/01/06 05:28:58;;;;;;;0.88;0.47;;;;;;;19.19;48.51;99476.16;5023849;28;20049;-59
2024/01/06 05:31:26;;;;;;;1.40;0.60;;;;;;;19.19;48.61;99484.19;5026107;28;20052;-60
2024/01/06 05:33:56;;;;;;;1.00;0.50;;;;;;;19.19;48.36;99481.50;5019856;28;20053;-60
2024/01/06 05:36:23;;;;;;;2.13;0.60;;;;;;;19.19;48.44;99476.16;5021732;28;20037;-56
2024/01/06 05:38:51;;;;;;;1.05;0.50;;;;;;;19.19;48.54;99484.19;5024872;28;20069;-60
2024/01/06 05:41:19;;;;;;;1.80;0.80;;;;;;;19.18;48.47;99483.34;5026289;28;20037;-60
2024/01/06 05:43:47;;;;;;;1.48;0.80;;;;;;;19.19;48.56;99481.50;5022226;28;20531;-60
2024/01/06 05:46:40;;;;;;;0.70;0.40;;;;;;;19.17;48.53;99481.69;5021372;28;20049;-60
2024/01/06 05:49:10;;;;;;;;;;;;;;;19.16;48.55;99471.09;5039864;28;20053;-60
2024/01/06 05:51:37;;;;;;;1.10;0.50;;;;;;;19.17;48.63;99473.63;5021236;28;19922;-57
2024/01/06 05:54:04;;;;;;;1.20;0.68;;;;;;;19.17;48.62;99481.69;5021782;28;20399;-56
2024/01/06 05:56:32;;;;;;;1.92;0.50;;;;;;;19.17;48.57;99478.16;5024282;28;20046;-58
2024/01/06 05:59:00;;;;;;;0.95;0.32;;;;;;;19.16;48.47;99482.69;5025660;28;20049;-60
2024/01/06 06:01:27;;;;;;;0.93;0.40;;;;;;;19.18;48.49;99478.00;5021184;28;20049;-60
2024/01/06 06:03:54;;;;;;;1.17;0.57;;;;;;;19.17;48.46;99481.69;5021012;28;20453;-60
2024/01/06 06:06:22;;;;;;;1.02;0.43;;;;;;;19.17;48.67;99479.00;5023493;28;20050;-59
2024/01/06 06:08:50;;;;;;;1.02;0.50;;;;;;;19.17;48.51;99476.31;5025717;28;20067;-60
2024/01/06 06:11:18;;;;;;;1.13;0.40;;;;;;;19.17;48.52;99478.16;5020935;28;20049;-60
2024/01/06 06:13:49;;;;;;;1.77;0.63;;;;;;;19.17;48.70;99478.16;5020977;28;20057;-61
2024/01/06 06:16:16;;;;;;;1.98;0.60;;;;;;;19.17;48.57;99473.63;5024647;28;20049;-61
2024/01/06 06:18:43;;;;;;;1.42;0.60;;;;;;;19.16;48.75;99471.97;5024106;28;20060;-57
2024/01/06 06:21:11;;;;;;;0.80;0.57;;;;;;;19.16;48.65;99471.97;5021068;28;20411;-55
2024/01/06 06:23:39;;;;;;;0.70;0.40;;;;;;;19.16;48.53;99476.47;5019604;28;20042;-55
2024/01/06 06:26:07;;;;;;;1.27;0.50;;;;;;;19.15;48.59;99470.25;5024251;28;20501;-54
2024/01/06 06:28:35;;;;;;;1.10;0.45;;;;;;;19.16;48.89;99471.09;5023723;28;20504;-58
2024/01/06 06:31:03;;;;;;;0.95;0.38;;;;;;;19.15;48.73;99472.09;5020690;28;20042;-55
2024/01/06 06:33:33;;;;;;;1.27;0.47;;;;;;;19.14;48.83;99471.28;5023039;28;20049;-56
2024/01/06 06:36:04;;;;;;;1.08;0.30;;;;;;;19.14;48.60;99471.28;5027371;28;20061;-55
2024/01/06 06:38:31;;;;;;;1.10;0.50;;;;;;;19.14;48.78;99473.13;5021353;28;20055;-55
2024/01/06 06:40:59;;;;;;;1.15;0.50;;;;;;;19.14;48.77;99475.81;5020871;28;20049;-56
2024/01/06 06:43:26;;;;;;;1.10;0.43;;;;;;;19.13;48.72;99474.97;5021040;28;20057;-56
2024/01/06 06:45:55;;;;;;;1.40;0.60;;;;;;;19.13;48.58;99472.28;5028108;28;20075;-55
2024/01/06 06:48:23;;;;;;;0.95;0.50;;;;;;;19.12;48.60;99475.97;5029959;28;20041;-56
2024/01/06 06:50:50;;;;;;;1.30;0.50;;;;;;;19.12;48.60;99467.94;5021613;28;20046;-56
2024/01/06 06:53:17;;;;;;;0.88;0.40;;;;;;;19.12;48.77;99465.25;5022976;28;20056;-55
2024/01/06 06:55:45;;;;;;;0.73;0.40;;;;;;;19.12;48.77;99469.75;5027408;28;20049;-56
2024/01/06 06:58:13;;;;;;;1.08;0.50;;;;;;;19.13;48.88;99479.50;5024985;28;20057;-57
2024/01/06 07:00:40;;;;;;;2.45;0.60;;;;;;;19.12;48.68;99480.47;5021817;28;20046;-56
2024/01/06 07:03:08;;;;;;;0.82;0.40;;;;;;;19.10;48.68;99469.91;5020866;28;20052;-54
2024/01/06 07:05:35;;;;;;;1.48;0.60;;;;;;;19.11;48.85;99476.13;5027958;28;20044;-56
2024/01/06 07:08:03;;;;;;;0.70;0.30;;;;;;;19.11;48.74;99476.97;5020870;28;20045;-56
2024/01/06 07:10:31;;;;;;;1.27;0.50;;;;;;;19.10;48.74;99472.59;5020761;28;20045;-61
2024/01/06 07:12:58;;;;;;;1.23;0.50;;;;;;;19.10;48.72;99480.66;5021955;28;20415;-61
2024/01/06 07:15:26;;;;;;;1.27;0.50;;;;;;;19.11;48.70;99470.75;5031794;28;20041;-57
2024/01/06 07:17:53;;;;;;;1.63;0.30;;;;;;;19.11;48.64;99476.13;5027156;28;20465;-57
2024/01/06 07:20:23;;;;;;;1.02;0.40;;;;;;;19.11;48.72;99479.63;5024611;28;20057;-58
2024/01/06 07:22:51;;;;;;;0.45;0.25;;;;;;;19.11;48.72;99474.28;5025680;28;20060;-58
2024/01/06 07:25:18;;;;;;;1.40;0.38;;;;;;;19.11;48.73;99478.81;5033904;28;20045;-57
2024/01/06 07:27:46;;;;;;;1.05;0.40;;;;;;;19.10;48.71;99486.03;5025727;28;20041;-57
2024/01/06 07:30:13;;;;;;;2.20;0.55;;;;;;;19.10;48.70;99482.50;5023998;28;20057;-57
2024/01/06 07:32:42;;;;;;;0.93;0.40;;;;;;;19.10;48.72;99485.19;5024099;28;20053;-57
2024/01/06 07:35:09;;;;;;;0.60;0.30;;;;;;;19.10;48.59;99485.19;5023388;28;20049;-57
2024/01/06 07:37:37;;;;;;;1.08;0.40;;;;;;;19.10;48.61;99483.34;5035376;28;20049;-59
2024/01/06 07:40:05;;;;;;;1.15;0.50;;;;;;;19.10;48.79;99485.19;5024354;28;20484;-59
2024/01/06 07:42:35;;;;;;;0.82;0.30;;;;;;;19.09;48.77;99486.19;5024338;28;20065;-57
2024/01/06 07:45:03;;;;;;;1.35;0.55;;;;;;;19.09;48.80;99491.56;5027624;28;20056;-60
2024/01/06 07:47:30;;;;;;;0.93;0.38;;;;;;;19.10;48.75;99490.53;5024761;28;20057;-60
2024/01/06 07:49:58;;;;;;;1.35;0.45;;;;;;;19.08;48.85;99477.31;5024172;28;20050;-60
2024/01/06 07:52:26;;;;;;;0.65;0.30;;;;;;;19.08;48.74;99485.34;5024898;28;20049;-56
2024/01/06 07:54:53;;;;;;;1.13;0.38;;;;;;;19.07;48.79;99489.03;5030698;28;20045;-61
2024/01/06 07:57:21;;;;;;;0.98;0.40;;;;;;;19.07;48.67;99482.81;5027284;28;20060;-57
2024/01/06 07:59:48;;;;;;;0.93;0.40;;;;;;;19.08;48.85;99489.84;5031755;28;20041;-58
2024/01/06 08:02:16;;;;;;;0.98;0.38;;;;;;;19.07;48.78;99486.34;5024616;28;20053;-57
2024/01/06 08:04:45;;;;;;;1.17;0.60;;;;;;;19.07;48.83;99478.28;5030197;28;20045;-57
2024/01/06 08:07:13;;;;;;;0.73;0.30;;;;;;;19.07;48.61;99491.69;5023894;28;20420;-60
2024/01/06 08:09:42;;;;;;;1.77;0.40;;;;;;;19.06;48.85;99483.81;5023856;28;20053;-60
2024/01/06 08:12:10;;;;;;;1.08;0.35;;;;;;;19.06;48.85;99483.81;5025214;28;20064;-58
2024/01/06 08:14:37;;;;;;;1.35;0.40;;;;;;;19.05;48.67;99477.63;5029478;28;20048;-59
2024/01/06 08:17:05;;;;;;;0.30;0.30;;;;;;;19.05;48.77;99474.09;5023929;28;20060;-58
2024/01/06 08:19:33;;;;;;;1.15;0.50;;;;;;;19.05;48.65;99469.59;5023389;28;20042;-55
2024/01/06 08:22:01;;;;;;;1.02;0.40;;;;;;;19.05;48.83;99477.63;5025643;28;20064;-56
2024/01/06 08:24:29;;;;;;;1.20;0.40;;;;;;;19.05;48.78;99480.31;5028678;28;20044;-56
2024/01/06 08:26:57;;;;;;;0.70;0.30;;;;;;;19.05;48.71;99484.84;5028494;28;20049;-56
2024/01/06 08:29:25;;;;;;;0.98;0.32;;;;;;;19.06;48.82;99483.81;5023089;28;20053;-57
2024/01/06 08:31:54;;;;;;;0.82;0.30;;;;;;;19.05;48.99;99482.16;5025920;28;20042;-57
2024/01/06 08:34:22;;;;;;;0.60;0.30;;;;;;;19.04;48.83;99489.38;5028562;28;20059;-57
2024/01/06 08:36:50;;;;;;;1.00;0.40;;;;;;;19.05;48.81;99498.25;5018972;28;20034;-56
2024/01/06 08:39:18;;;;;;;1.35;0.40;;;;;;;19.03;48.86;99493.03;5024247;28;20396;-56
2024/01/06 08:41:46;;;;;;;0.70;0.32;;;;;;;19.05;48.77;99498.25;5026845;28;20042;-60
2024/01/06 08:44:14;;;;;;;0.90;0.40;;;;;;;19.05;48.69;99503.63;5028539;28;20045;-60
2024/01/06 08:46:41;;;;;;;1.02;0.40;;;;;;;19.03;48.71;99499.22;5023888;28;20377;-56
2024/01/06 08:49:09;;;;;;;1.08;0.55;;;;;;;19.02;48.91;99496.72;5023472;28;20061;-55
2024/01/06 08:51:37;;;;;;;0.75;0.30;;;;;;;19.02;48.93;99507.44;5027081;28;20404;-55
2024/01/06 08:54:05;;;;;;;0.57;0.25;;;;;;;19.02;48.84;99507.44;5028631;28;20041;-60
2024/01/06 08:56:36;;;;;;;1.63;0.30;;;;;;;19.04;48.75;99508.13;5024233;28;20060;-58
2024/01/06 08:59:03;;;;;;;0.45;0.20;;;;;;;19.03;48.78;99511.81;5023318;28;20412;-56
2024/01/06 09:01:31;;;;;;;1.55;0.30;;;;;;;19.02;48.72;99520.84;5028165;28;20042;-56
2024/01/06 09:03:59;;;;;;;0.73;0.30;;;;;;;19.03;48.88;99519.84;5026830;28;20415;-56
2024/01/06 09:06:28;;;;;;;1.17;0.52;;;;;;;19.02;48.87;99515.50;5023281;28;20531;-58
2024/01/06 09:08:56;;;;;;;0.80;0.40;;;;;;;19.02;48.71;99523.53;5024129;28;20054;-54
2024/01/06 09:11:24;;;;;;;0.38;0.20;;;;;;;19.03;48.93;99514.50;5028966;28;20049;-60
2024/01/06 09:13:52;;;;;;;0.63;0.28;;;;;;;19.01;48.82;99522.72;5026055;28;20050;-60
2024/01/06 09:16:20;;;;;;;0.85;0.30;;;;;;;19.02;49.05;99523.53;5023249;28;20041;-60
2024/01/06 09:18:48;;;;;;;1.02;0.32;;;;;;;19.02;49.00;99515.50;5022577;28;20080;-59
2024/01/06 09:21:17;;;;;;;1.10;0.30;;;;;;;19.01;49.04;99522.72;5028549;28;20041;-60
2024/01/06 09:23:45;;;;;;;0.60;0.22;;;;;;;19.00;49.11;99513.00;5006148;28;20056;-60
2024/01/06 09:26:12;;;;;;;0.60;0.30;;;;;;;19.00;48.96;99520.19;5022485;28;20148;-60
2024/01/06 09:28:40;;;;;;;0.55;0.30;;;;;;;19.01;49.01;99519.19;5022606;28;20049;-56
2024/01/06 09:31:07;;;;;;;1.58;0.70;;;;;;;18.99;48.75;99515.81;5029309;28;20041;-55
2024/01/06 09:33:35;;;;;;;1.20;0.50;;;;;;;18.97;48.65;99515.16;5025463;28;20049;-56
2024/01/06 09:36:02;;;;;;;1.00;0.40;;;;;;;18.97;48.77;99521.34;5022495;28;20069;-53
2024/01/06 09:38:30;;;;;;;1.90;0.43;;;;;;;18.97;48.54;99505.25;5018621;28;20045;-56
2024/01/06 09:40:58;;;;;;;1.27;0.60;;;;;;;18.97;48.88;99507.94;5032238;28;20387;-56
2024/01/06 09:43:27;;;;;;;0.63;0.30;;;;;;;18.97;49.05;99507.09;5030919;28;20046;-55
2024/01/06 09:46:05;;;;;;;0.77;0.30;;;;;;;18.99;48.91;99507.75;5022092;28;20046;-62
2024/01/06 09:48:39;;;;;;;1.55;0.52;;;;;;;18.99;48.87;99518.50;5024788;28;20423;-61
2024/01/06 09:51:10;;;;;;;1.60;0.55;;;;;;;19.00;48.76;99509.47;5037810;28;20055;-62
2024/01/06 09:53:59;;;;;;;1.15;0.40;;;;;;;18.99;49.08;99508.59;5030345;28;20049;-61
2024/01/06 09:56:29;;;;;;;1.52;0.70;;;;;;;18.98;48.84;99516.81;5049442;28;20037;-61
2024/01/06 09:58:57;;;;;;;1.40;0.68;;;;;;;18.97;48.69;99513.31;5045385;28;20414;-63
2024/01/06 10:01:25;;;;;;;0.55;0.30;;;;;;;18.98;49.05;99509.59;5045040;28;20054;-62
2024/01/06 10:03:53;;;;;;;1.90;0.57;;;;;;;18.98;49.48;99506.09;5047131;28;20045;-62
2024/01/06 10:06:20;;;;;;;6.03;0.55;;;;;;;18.98;49.66;99496.19;5046046;28;20049;-62
2024/01/06 10:08:50;;;;;;;3.58;0.75;;;;;;;18.99;49.59;99497.88;5043428;28;20044;-61
2024/01/06 10:11:19;;;;;;;1.38;0.60;;;;;;;18.97;49.62;99499.88;5041039;28;20468;-60
2024/01/06 10:13:51;;;;;;;2.03;0.57;;;;;;;18.98;49.64;99493.53;5043995;28;20036;-60
2024/01/06 10:16:19;;;;;;;1.73;0.45;;;;;;;19.01;50.00;99495.03;5042349;28;20049;-62
2024/01/06 10:18:47;;;;;;;1.98;0.60;;;;;;;19.04;49.72;99494.72;5038481;28;20046;-58
2024/01/06 10:21:21;;;;;;;2.03;0.60;;;;;;;19.11;49.53;99500.25;5039311;28;20368;-65
2024/01/06 10:23:50;;;;;;;1.25;0.50;;;;;;;19.10;49.74;99488.69;5041135;28;20506;-65
2024/01/06 10:26:18;;;;;;;1.45;0.50;;;;;;;19.09;49.63;99491.56;5037523;28;20060;-65
2024/01/06 10:28:49;;;;;;;1.30;0.57;;;;;;;19.08;49.55;99493.41;5034115;28;20061;-65
2024/01/06 10:31:17;;;;;;;2.95;0.73;;;;;;;19.09;49.57;99486.19;5034748;28;20046;-65
2024/01/06 10:33:46;;;;;;;1.70;0.50;;;;;;;19.10;49.47;99479.81;5037643;28;20052;-65
2024/01/06 10:36:15;;;;;;;1.70;0.60;;;;;;;19.07;49.32;99480.97;5036533;28;20037;-64
2024/01/06 10:38:46;;;;;;;1.70;0.77;;;;;;;19.05;48.21;99480.31;5018311;28;20046;-59
2024/01/06 10:41:16;;;;;;;2.13;1.23;;;;;;;19.02;47.45;99470.72;5031745;28;20061;-59
2024/01/06 10:43:44;;;;;;;2.45;1.13;;;;;;;19.00;47.66;99482.66;5035827;28;20040;-57
2024/01/06 10:46:14;;;;;;;1.77;1.02;;;;;;;18.97;47.37;99474.91;5032801;28;20151;-58
2024/01/06 10:48:42;;;;;;;1.95;1.10;;;;;;;18.95;47.17;99466.19;5032231;28;20058;-58
2024/01/06 10:51:13;;;;;;;2.40;1.00;;;;;;;18.92;46.95;99463.81;5032406;28;20054;-60
2024/01/06 10:53:42;;;;;;;3.25;0.90;;;;;;;18.92;47.43;99463.81;5037053;28;20044;-60
2024/01/06 10:56:10;;;;;;;1.80;0.73;;;;;;;18.92;47.50;99463.81;5032152;28;20053;-61
2024/01/06 10:58:49;;;;;;;2.10;0.70;;;;;;;18.93;47.57;99463.66;5029953;28;20418;-61
2024/01/06 11:01:21;;;;;;;1.88;0.70;;;;;;;18.94;47.80;99461.81;5030905;28;20053;-60
2024/01/06 11:03:54;;;;;;;2.03;0.80;;;;;;;18.95;47.82;99453.59;5030583;28;20057;-60
2024/01/06 11:06:23;;;;;;;2.38;0.82;;;;;;;18.95;47.84;99450.09;5027517;28;20404;-61
2024/01/06 11:09:19;;;;;;;0.95;0.45;;;;;;;18.96;47.85;99441.91;5029295;28;20042;-62
2024/01/06 11:11:48;;;;;;;1.80;0.55;;;;;;;18.97;47.81;99445.41;5033809;28;20048;-62
2024/01/06 11:14:25;;;;;;;1.35;0.68;;;;;;;18.97;47.88;99448.09;5028674;28;20053;-61
2024/01/06 11:16:54;;;;;;;1.25;0.50;;;;;;;18.97;48.00;99440.06;5030041;28;20058;-61
2024/01/06 11:19:34;;;;;;;2.03;0.63;;;;;;;18.98;47.96;99436.38;5034617;28;20055;-60
2024/01/06 11:22:22;;;;;;;2.20;0.60;;;;;;;18.97;47.99;99432.84;5028990;28;20061;-62
2024/01/06 11:24:57;;;;;;;2.22;0.85;;;;;;;18.97;48.00;99423.97;5029204;28;20064;-62
2024/01/06 11:27:29;;;;;;;1.42;0.73;;;;;;;18.97;47.88;99424.81;5035816;28;20056;-60
2024/01/06 11:30:05;;;;;;;1.90;0.80;;;;;;;18.97;47.92;99416.75;5038327;28;20058;-62
2024/01/06 11:32:46;;;;;;;1.65;0.60;;;;;;;18.99;48.02;99417.41;5029299;28;20060;-59
2024/01/06 11:35:23;;;;;;;2.95;0.63;;;;;;;19.00;48.26;99407.56;5031190;28;20399;-58
2024/01/06 11:37:58;;;;;;;3.22;0.68;;;;;;;18.99;48.15;99404.00;5029336;28;20060;-60
2024/01/06 11:40:32;;;;;;;2.30;1.00;;;;;;;19.01;48.28;99393.97;5018762;28;20504;-60